Portada
METAR-TAF:

METAR-TAF

Aeroports :

Hyderabad, Índia

latitud: 17-27N, longitud: 078-28E, altitud: 530 m

Observació

L'informe es va fer fa 39 minuts, a les 16:30 UTC
Vent 3 kt del Oest/Sud-Oest
Temperatura 30°C
Humitat 55%
Pressió 1006 hPa
Visibilitat: 6000 m
Escasses núvols a una alçada de 2000 ft

METAR: VOHY 231630Z 25003KT 6000 FEW020 30/20 Q1006 NOSIG

Hora: 22:39 (17:09 UTC)

Pronòstic

L'informe es va fer fa 6 hores i 9 minuts, a les 11:00 UTC
Pronòstic vàlid del 23 a les 12 UTC al 23 a les 21 UTC
Vent 10 kt del Oest amb ràfegues de 20 kt
Visibilitat: 6000 m
Escasses núvols a una alçada de 1500 ft
Núvols disperses a una alçada de 10000 ft
Evolucionant progressivament
l' 23 a les 16 UTC al 23 a les 18 UTC
Vent 8 kt del Oest
Visibilitat: 5000 m
Escasses núvols a una alçada de 1500 ft
calitja

TAF: VOHY 231100Z 2312/2321 28010G20KT 6000 FEW015 SCT100 BECMG 2316/2318 26008KT 5000 HZ FEW015

Observacions i pronòstics meteorològics de més de 4000 aeroports (METAR i TAF).

Les estacions disponibles són els punts grocs i vermells al mapa.

Posi el ratolí al punt desitjat per veure el nom de l'estació.

Feu clic per veure les observacions i els pronòstics meteorològics.

Per canviar el mapa: feu clic els botons verds amb una creu de color negre per apropar; al botó verd amb un guió per allunyar la imatge; o en les fletxes verdes per a mapes adjacents.


METAR-TAF: